createdAt,value
2018-12-29T00:00:41.896Z,0.10
2018-12-29T00:03:10.411Z,0.20
2018-12-29T00:05:38.960Z,0.20
2018-12-29T00:08:07.452Z,0.20
2018-12-29T00:10:35.929Z,0.30
2018-12-29T00:13:04.421Z,0.20
2018-12-29T00:15:32.986Z,0.30
2018-12-29T00:18:01.503Z,0.20
2018-12-29T00:20:30.052Z,0.30
2018-12-29T00:22:58.532Z,0.40
2018-12-29T00:25:27.105Z,0.40
2018-12-29T00:27:55.572Z,0.40
2018-12-29T00:30:24.067Z,0.40
2018-12-29T00:32:52.869Z,0.30
2018-12-29T00:35:21.474Z,0.40
2018-12-29T00:37:49.945Z,0.40
2018-12-29T00:40:18.409Z,0.20
2018-12-29T00:42:46.861Z,0.10
2018-12-29T00:45:15.339Z,0.20
2018-12-29T00:47:43.819Z,0.20
2018-12-29T00:50:12.370Z,0.20
2018-12-29T00:52:40.977Z,0.20
2018-12-29T00:55:09.493Z,0.30
2018-12-29T00:57:38.029Z,0.40
2018-12-29T01:00:07.547Z,0.40
2018-12-29T01:02:36.063Z,0.20
2018-12-29T01:05:04.817Z,0.20
2018-12-29T01:07:33.350Z,0.40
2018-12-29T01:10:01.836Z,0.30
2018-12-29T01:12:30.289Z,0.40
2018-12-29T01:14:58.737Z,0.40
2018-12-29T01:17:27.211Z,0.40
2018-12-29T01:19:55.734Z,0.20
2018-12-29T01:22:24.254Z,0.30
2018-12-29T01:24:52.758Z,0.30
2018-12-29T01:27:21.257Z,0.40
2018-12-29T01:29:49.691Z,0.40
2018-12-29T01:32:18.185Z,0.20
2018-12-29T01:34:46.647Z,0.30
2018-12-29T01:37:15.156Z,0.30
2018-12-29T01:39:43.660Z,0.20
2018-12-29T01:42:12.163Z,0.30
2018-12-29T01:44:40.660Z,0.30
2018-12-29T01:47:09.186Z,0.30
2018-12-29T01:49:37.692Z,0.40
2018-12-29T01:52:06.226Z,0.40
2018-12-29T01:54:34.689Z,0.40
2018-12-29T01:57:03.150Z,0.50
2018-12-29T01:59:31.671Z,0.50
2018-12-29T02:02:00.238Z,0.50
2018-12-29T02:04:28.746Z,0.60
2018-12-29T02:06:57.197Z,0.60
2018-12-29T02:09:25.675Z,0.70
2018-12-29T02:11:54.167Z,0.50
2018-12-29T02:14:22.665Z,0.60
2018-12-29T02:16:51.194Z,0.60
2018-12-29T02:19:19.712Z,0.60
2018-12-29T02:21:48.284Z,0.60
2018-12-29T02:24:16.758Z,0.60
2018-12-29T02:26:45.280Z,0.60
2018-12-29T02:29:13.790Z,0.60
2018-12-29T02:31:42.267Z,0.60
2018-12-29T02:34:10.822Z,0.70
2018-12-29T02:36:39.330Z,0.70
2018-12-29T02:39:07.883Z,0.60
2018-12-29T02:41:36.337Z,0.50
2018-12-29T02:44:04.962Z,0.30
2018-12-29T02:46:33.447Z,0.40
2018-12-29T02:49:01.983Z,0.50
2018-12-29T02:51:30.595Z,0.40
2018-12-29T02:53:59.152Z,0.50
2018-12-29T02:56:27.770Z,0.50
2018-12-29T02:58:56.243Z,0.60
2018-12-29T03:01:24.846Z,0.70
2018-12-29T03:03:53.305Z,0.70
2018-12-29T03:06:21.863Z,0.80
2018-12-29T03:08:50.323Z,0.80
2018-12-29T03:11:18.790Z,0.90
2018-12-29T03:13:47.259Z,1.00
2018-12-29T03:16:15.738Z,0.90
2018-12-29T03:18:44.204Z,0.80
2018-12-29T03:21:12.693Z,0.80
2018-12-29T03:23:41.224Z,0.90
2018-12-29T03:26:09.782Z,0.90
2018-12-29T03:28:38.296Z,0.90
2018-12-29T03:31:06.854Z,0.90
2018-12-29T03:33:35.330Z,0.90
2018-12-29T03:36:03.833Z,0.80
2018-12-29T03:38:32.359Z,0.80
2018-12-29T03:41:00.931Z,0.80
2018-12-29T03:43:29.393Z,0.80
2018-12-29T03:45:57.877Z,0.90
2018-12-29T03:48:26.354Z,0.90
2018-12-29T03:50:54.918Z,0.90
2018-12-29T03:53:23.582Z,0.90
2018-12-29T03:55:52.054Z,0.90
2018-12-29T03:58:20.537Z,0.90
2018-12-29T04:00:49.020Z,0.90
2018-12-29T04:03:17.513Z,0.90
2018-12-29T04:05:46.055Z,0.90
2018-12-29T04:08:14.560Z,1.00
2018-12-29T04:10:43.018Z,1.00
2018-12-29T04:13:11.523Z,0.90
2018-12-29T04:15:40.048Z,0.90
2018-12-29T04:18:08.604Z,1.00
2018-12-29T04:20:37.078Z,1.10
2018-12-29T04:23:05.595Z,1.10
2018-12-29T04:25:34.146Z,0.90
2018-12-29T04:28:02.690Z,0.80
2018-12-29T04:30:31.243Z,0.80
2018-12-29T04:32:59.783Z,0.90
2018-12-29T04:35:28.340Z,1.00
2018-12-29T04:37:56.837Z,0.90
2018-12-29T04:40:25.377Z,0.90
2018-12-29T04:42:53.882Z,1.00
2018-12-29T04:45:22.417Z,1.00
2018-12-29T04:47:50.870Z,1.00
2018-12-29T04:50:19.355Z,1.00
2018-12-29T04:52:47.832Z,1.00
2018-12-29T04:55:16.370Z,1.00
2018-12-29T04:57:44.840Z,1.00
2018-12-29T05:00:13.468Z,1.00
2018-12-29T05:02:41.997Z,1.10
2018-12-29T05:05:10.576Z,1.10
2018-12-29T05:07:39.117Z,1.10
2018-12-29T05:10:07.750Z,1.10
2018-12-29T05:12:36.221Z,1.00
2018-12-29T05:15:05.172Z,1.00
2018-12-29T05:17:33.702Z,1.00
2018-12-29T05:20:02.209Z,1.00
2018-12-29T05:22:30.674Z,1.00
2018-12-29T05:24:59.179Z,1.00
2018-12-29T05:27:28.619Z,1.10
2018-12-29T05:29:58.275Z,1.20
2018-12-29T05:32:26.772Z,1.10
2018-12-29T05:34:55.318Z,1.10
2018-12-29T05:37:23.802Z,1.20
2018-12-29T05:39:52.250Z,1.20
2018-12-29T05:42:20.866Z,1.20
2018-12-29T05:44:49.405Z,1.30
2018-12-29T05:47:17.910Z,1.30
2018-12-29T05:49:46.429Z,1.20
2018-12-29T05:52:14.935Z,1.20
2018-12-29T05:54:43.460Z,1.10
2018-12-29T05:57:11.967Z,1.10
2018-12-29T05:59:40.479Z,1.10
2018-12-29T06:02:08.973Z,1.20
2018-12-29T06:04:37.451Z,1.10
2018-12-29T06:07:05.940Z,1.20
2018-12-29T06:09:34.416Z,1.10
2018-12-29T06:12:02.903Z,1.10
2018-12-29T06:14:31.374Z,1.20
2018-12-29T06:16:59.943Z,1.20
2018-12-29T06:19:28.450Z,1.10
2018-12-29T06:21:56.946Z,1.10
2018-12-29T06:24:25.478Z,1.00
2018-12-29T06:26:53.944Z,1.10
2018-12-29T06:29:22.408Z,1.10
2018-12-29T06:31:50.902Z,1.10
2018-12-29T06:34:19.453Z,1.10
2018-12-29T06:36:47.973Z,1.20
2018-12-29T06:39:16.487Z,1.20
2018-12-29T06:41:44.936Z,1.20
2018-12-29T06:44:13.455Z,1.30
2018-12-29T06:46:41.983Z,1.20
2018-12-29T06:49:10.708Z,1.20
2018-12-29T06:51:39.264Z,1.20
2018-12-29T06:54:08.147Z,1.30
2018-12-29T06:56:36.579Z,1.20
2018-12-29T06:59:05.129Z,1.10
2018-12-29T07:01:33.564Z,1.20
2018-12-29T07:04:02.217Z,1.20
2018-12-29T07:06:30.759Z,1.20
2018-12-29T07:09:00.309Z,1.30
2018-12-29T07:11:28.766Z,1.20
2018-12-29T07:13:57.339Z,1.30
2018-12-29T07:16:26.044Z,1.40
2018-12-29T07:18:54.513Z,1.30
2018-12-29T07:21:23.231Z,1.30
2018-12-29T07:23:51.961Z,1.30
2018-12-29T07:26:20.551Z,1.20
2018-12-29T07:28:49.068Z,1.20
2018-12-29T07:31:17.650Z,1.30
2018-12-29T07:33:46.301Z,1.30
2018-12-29T07:36:14.845Z,1.30
2018-12-29T07:38:43.402Z,1.30
2018-12-29T07:41:12.015Z,1.30
2018-12-29T07:43:40.540Z,1.30
2018-12-29T07:46:09.018Z,1.30
2018-12-29T07:48:37.473Z,1.30
2018-12-29T07:51:05.973Z,1.40
2018-12-29T07:53:34.749Z,1.50
2018-12-29T07:56:03.459Z,1.50
2018-12-29T07:58:32.098Z,1.40
2018-12-29T08:01:00.711Z,1.50
2018-12-29T08:03:29.194Z,1.50
2018-12-29T08:05:57.733Z,1.50
2018-12-29T08:08:26.391Z,1.50
2018-12-29T08:10:54.860Z,1.50
2018-12-29T08:13:23.300Z,1.50
2018-12-29T08:15:52.105Z,1.50
2018-12-29T08:18:20.632Z,1.50
2018-12-29T08:20:49.202Z,1.50
2018-12-29T08:23:17.658Z,1.50
2018-12-29T08:25:46.442Z,1.50
2018-12-29T08:28:14.923Z,1.80
2018-12-29T08:30:43.550Z,1.70
2018-12-29T08:33:12.138Z,1.80
2018-12-29T08:35:40.683Z,1.70
2018-12-29T08:38:09.161Z,1.70
2018-12-29T08:40:37.661Z,1.70
2018-12-29T08:43:06.227Z,1.70
2018-12-29T08:45:34.932Z,1.70
2018-12-29T08:48:03.483Z,1.80
2018-12-29T08:50:32.054Z,1.80
2018-12-29T08:53:00.799Z,1.90
2018-12-29T08:55:30.066Z,1.90
2018-12-29T08:57:58.755Z,1.90
2018-12-29T09:00:27.288Z,1.90
2018-12-29T09:02:55.878Z,1.80
2018-12-29T09:05:24.579Z,1.80
2018-12-29T09:07:53.077Z,1.90
2018-12-29T09:10:21.606Z,2.00
2018-12-29T09:12:50.088Z,2.00
2018-12-29T09:15:18.663Z,2.00
2018-12-29T09:17:47.151Z,2.00
2018-12-29T09:20:16.005Z,2.10
2018-12-29T09:22:44.556Z,2.10
2018-12-29T09:25:13.262Z,2.10
2018-12-29T09:27:41.798Z,2.10
2018-12-29T09:30:10.422Z,2.10
2018-12-29T09:32:38.875Z,2.10
2018-12-29T09:35:07.330Z,2.10
2018-12-29T09:37:35.968Z,2.10
2018-12-29T09:40:05.367Z,2.10
2018-12-29T09:42:34.061Z,1.90
2018-12-29T09:45:02.532Z,2.10
2018-12-29T09:47:31.041Z,2.10
2018-12-29T09:49:59.603Z,2.20
2018-12-29T09:52:28.402Z,2.20
2018-12-29T09:54:57.104Z,2.30
2018-12-29T09:57:25.659Z,2.40
2018-12-29T09:59:59.078Z,2.40
2018-12-29T10:02:27.787Z,2.40
2018-12-29T10:04:56.270Z,2.40
2018-12-29T10:07:24.793Z,2.50
2018-12-29T10:09:53.361Z,2.40
2018-12-29T10:12:21.825Z,2.60
2018-12-29T10:14:50.336Z,2.60
2018-12-29T10:17:18.890Z,2.40
2018-12-29T10:19:47.375Z,2.50
2018-12-29T10:22:15.834Z,2.50
2018-12-29T10:24:44.343Z,2.60
2018-12-29T10:27:12.825Z,2.60
2018-12-29T10:29:41.337Z,2.60
2018-12-29T10:32:09.783Z,2.70
2018-12-29T10:34:38.333Z,2.70
2018-12-29T10:37:15.067Z,2.60
2018-12-29T10:39:44.397Z,2.80
2018-12-29T10:42:12.846Z,2.70
2018-12-29T10:44:41.312Z,2.80
2018-12-29T10:47:09.784Z,3.00
2018-12-29T10:49:38.262Z,3.00
2018-12-29T10:52:08.827Z,2.90
2018-12-29T10:54:37.288Z,3.00
2018-12-29T10:57:05.780Z,3.00
2018-12-29T10:59:34.303Z,3.00
2018-12-29T11:02:02.778Z,3.00
2018-12-29T11:04:31.246Z,2.90
2018-12-29T11:06:59.772Z,3.00
2018-12-29T11:09:28.248Z,3.00
2018-12-29T11:11:56.707Z,3.10
2018-12-29T11:14:25.200Z,3.10
2018-12-29T11:16:53.829Z,3.20
2018-12-29T11:19:22.373Z,3.20
2018-12-29T11:21:50.917Z,3.20
2018-12-29T11:24:19.394Z,3.30
2018-12-29T11:26:47.860Z,3.40
2018-12-29T11:29:16.330Z,3.30
2018-12-29T11:31:44.857Z,3.30
2018-12-29T11:34:13.380Z,3.30
2018-12-29T11:36:41.960Z,3.30
2018-12-29T11:39:10.383Z,3.30
2018-12-29T11:41:38.831Z,3.30
2018-12-29T11:44:07.323Z,3.20
2018-12-29T11:46:35.870Z,3.30
2018-12-29T11:49:04.484Z,3.40
2018-12-29T11:51:33.010Z,3.50
2018-12-29T11:54:01.581Z,3.50
2018-12-29T11:56:30.075Z,3.50
2018-12-29T11:58:58.652Z,3.40
2018-12-29T12:01:27.158Z,3.30
2018-12-29T12:03:55.708Z,3.40
2018-12-29T12:06:24.222Z,3.50
2018-12-29T12:08:52.763Z,3.60
2018-12-29T12:11:21.206Z,3.50
2018-12-29T12:13:49.696Z,3.50
2018-12-29T12:16:18.355Z,3.40
2018-12-29T12:18:46.839Z,3.40
2018-12-29T12:21:15.309Z,3.20
2018-12-29T12:23:43.850Z,3.30
2018-12-29T12:26:12.374Z,3.50
2018-12-29T12:28:40.958Z,3.40
2018-12-29T12:31:09.394Z,3.40
2018-12-29T12:33:37.963Z,3.40
2018-12-29T12:36:06.455Z,3.30
2018-12-29T12:38:34.998Z,3.30
2018-12-29T12:41:03.485Z,3.20
2018-12-29T12:43:31.992Z,3.20
2018-12-29T12:46:01.019Z,3.20
2018-12-29T12:48:29.535Z,3.40
2018-12-29T12:50:58.296Z,3.30
2018-12-29T12:53:26.855Z,3.30
2018-12-29T12:55:55.425Z,3.50
2018-12-29T12:58:24.282Z,3.40
2018-12-29T13:00:53.114Z,3.40
2018-12-29T13:03:22.048Z,3.40
2018-12-29T13:05:51.011Z,3.50
2018-12-29T13:08:19.529Z,3.60
2018-12-29T13:10:48.003Z,3.50
2018-12-29T13:13:16.540Z,3.60
2018-12-29T13:15:45.076Z,3.60
2018-12-29T13:18:13.922Z,3.50
2018-12-29T13:20:42.483Z,3.50
2018-12-29T13:23:10.968Z,3.50
2018-12-29T13:25:39.507Z,3.60
2018-12-29T13:28:07.949Z,3.40
2018-12-29T13:30:36.674Z,3.40
2018-12-29T13:33:05.496Z,3.50
2018-12-29T13:35:34.969Z,3.40
2018-12-29T13:38:03.445Z,3.40
2018-12-29T13:40:31.915Z,3.50
2018-12-29T13:43:00.563Z,3.30
2018-12-29T13:45:29.087Z,3.10
2018-12-29T13:47:57.630Z,3.20
2018-12-29T13:50:26.224Z,3.10
2018-12-29T13:52:54.695Z,3.00
2018-12-29T13:55:23.249Z,3.20
2018-12-29T13:57:51.815Z,3.00
2018-12-29T14:00:20.349Z,3.00
2018-12-29T14:02:48.875Z,3.10
2018-12-29T14:05:17.424Z,3.20
2018-12-29T14:07:45.905Z,3.40
2018-12-29T14:10:14.432Z,3.40
2018-12-29T14:12:44.862Z,3.50
2018-12-29T14:15:13.313Z,3.40
2018-12-29T14:17:41.843Z,3.50
2018-12-29T14:20:10.372Z,3.50
2018-12-29T14:22:38.827Z,3.40
2018-12-29T14:25:07.400Z,3.40
2018-12-29T14:27:35.943Z,3.40
2018-12-29T14:30:05.144Z,3.30
2018-12-29T14:32:33.708Z,3.30
2018-12-29T14:35:02.263Z,3.40
2018-12-29T14:37:30.727Z,3.40
2018-12-29T14:39:59.267Z,3.40
2018-12-29T14:42:27.791Z,3.40
2018-12-29T14:44:56.336Z,3.30
2018-12-29T14:47:24.783Z,3.30
2018-12-29T14:49:53.323Z,3.40
2018-12-29T14:52:21.795Z,3.50
2018-12-29T14:54:50.578Z,3.50
2018-12-29T14:57:19.082Z,3.50
2018-12-29T14:59:47.545Z,3.60
2018-12-29T15:02:16.072Z,3.50
2018-12-29T15:04:44.625Z,3.40
2018-12-29T15:07:13.455Z,3.40
2018-12-29T15:09:41.928Z,3.50
2018-12-29T15:12:10.466Z,3.50
2018-12-29T15:14:38.964Z,3.50
2018-12-29T15:17:07.501Z,3.60
2018-12-29T15:19:36.042Z,3.60
2018-12-29T15:22:04.519Z,3.50
2018-12-29T15:24:33.440Z,3.40
2018-12-29T15:27:01.921Z,3.50
2018-12-29T15:29:30.442Z,3.70
2018-12-29T15:31:59.023Z,3.70
2018-12-29T15:34:27.551Z,3.60
2018-12-29T15:36:56.116Z,3.60
2018-12-29T15:39:25.073Z,3.60
2018-12-29T15:41:53.632Z,3.60
2018-12-29T15:44:22.993Z,3.50
2018-12-29T15:46:52.865Z,3.60
2018-12-29T15:49:21.381Z,3.60
2018-12-29T15:51:49.934Z,3.50
2018-12-29T15:54:18.458Z,3.50
2018-12-29T15:56:46.940Z,3.50
2018-12-29T15:59:15.491Z,3.40
2018-12-29T16:01:44.033Z,3.40
2018-12-29T16:04:12.583Z,3.40
2018-12-29T16:06:41.146Z,3.40
2018-12-29T16:09:09.690Z,3.30
2018-12-29T16:11:38.661Z,3.30
2018-12-29T16:14:07.152Z,3.30
2018-12-29T16:16:35.622Z,3.30
2018-12-29T16:19:04.171Z,3.30
2018-12-29T16:21:32.735Z,3.20
2018-12-29T16:24:01.282Z,3.30
2018-12-29T16:26:29.813Z,3.30
2018-12-29T16:28:58.404Z,3.20
2018-12-29T16:31:26.903Z,3.30
2018-12-29T16:33:55.373Z,3.20
2018-12-29T16:36:23.895Z,3.20
2018-12-29T16:38:52.396Z,3.30
2018-12-29T16:41:20.918Z,3.30
2018-12-29T16:43:49.818Z,3.40
2018-12-29T16:46:18.512Z,3.40
2018-12-29T16:48:47.058Z,3.30
2018-12-29T16:51:15.792Z,3.30
2018-12-29T16:53:46.638Z,3.20
2018-12-29T16:56:15.186Z,3.10
2018-12-29T16:58:44.736Z,3.10
2018-12-29T17:01:13.278Z,3.10
2018-12-29T17:03:42.061Z,3.10
2018-12-29T17:06:10.592Z,3.10
2018-12-29T17:08:41.303Z,3.10
2018-12-29T17:11:09.826Z,3.20
2018-12-29T17:13:38.657Z,3.30
2018-12-29T17:16:07.217Z,3.20
2018-12-29T17:18:35.751Z,3.20
2018-12-29T17:21:04.604Z,3.20
2018-12-29T17:23:33.056Z,3.20
2018-12-29T17:26:01.650Z,3.10
2018-12-29T17:28:30.381Z,3.10
2018-12-29T17:30:58.847Z,3.00
2018-12-29T17:33:27.354Z,2.90
2018-12-29T17:35:55.913Z,2.90
2018-12-29T17:38:24.514Z,2.90
2018-12-29T17:40:53.079Z,3.00
2018-12-29T17:43:21.646Z,3.00
2018-12-29T17:45:50.149Z,3.10
2018-12-29T17:48:18.710Z,3.20
2018-12-29T17:50:47.305Z,3.30
2018-12-29T17:53:16.096Z,3.30
2018-12-29T17:55:44.804Z,3.40
2018-12-29T17:58:13.302Z,3.40
2018-12-29T18:00:41.970Z,3.50
2018-12-29T18:03:10.638Z,3.40
2018-12-29T18:05:39.207Z,3.30
2018-12-29T18:08:07.732Z,3.20
2018-12-29T18:10:36.329Z,3.30
2018-12-29T18:13:04.888Z,3.30
2018-12-29T18:15:33.412Z,3.30
2018-12-29T18:18:02.071Z,3.30
2018-12-29T18:20:30.560Z,3.40
2018-12-29T18:22:59.116Z,3.30
2018-12-29T18:25:27.636Z,3.30
2018-12-29T18:27:56.204Z,3.30
2018-12-29T18:30:24.745Z,3.30
2018-12-29T18:32:53.293Z,3.20
2018-12-29T18:35:21.831Z,3.20
2018-12-29T18:37:50.376Z,3.20
2018-12-29T18:40:18.835Z,3.10
2018-12-29T18:42:47.789Z,3.10
2018-12-29T18:45:16.316Z,3.10
2018-12-29T18:47:44.888Z,3.10
2018-12-29T18:50:13.433Z,3.10
2018-12-29T18:52:41.982Z,3.00
2018-12-29T18:55:10.775Z,3.10
2018-12-29T18:57:39.322Z,3.10
2018-12-29T19:00:07.995Z,3.10
2018-12-29T19:02:36.547Z,3.20
2018-12-29T19:05:05.444Z,3.20
2018-12-29T19:07:33.971Z,3.10
2018-12-29T19:10:02.728Z,3.10
2018-12-29T19:12:31.483Z,3.10
2018-12-29T19:15:00.091Z,3.10
2018-12-29T19:17:29.008Z,3.00
2018-12-29T19:19:57.835Z,3.10
2018-12-29T19:22:26.366Z,3.10
2018-12-29T19:24:54.921Z,3.10
2018-12-29T19:27:23.446Z,3.20
2018-12-29T19:29:52.014Z,3.10
2018-12-29T19:32:20.537Z,3.20
2018-12-29T19:34:49.379Z,3.10
2018-12-29T19:37:18.108Z,3.00
2018-12-29T19:39:46.642Z,3.10
2018-12-29T19:42:15.205Z,3.10
2018-12-29T19:44:43.746Z,3.20
2018-12-29T19:47:12.602Z,3.20
2018-12-29T19:49:41.137Z,3.20
2018-12-29T19:52:09.680Z,3.20
2018-12-29T19:54:38.213Z,3.20
2018-12-29T19:57:08.011Z,3.20
2018-12-29T19:59:36.642Z,3.20
2018-12-29T20:02:05.111Z,3.30
2018-12-29T20:04:33.654Z,3.30
2018-12-29T20:07:02.594Z,3.30
2018-12-29T20:09:31.135Z,3.30
2018-12-29T20:11:59.867Z,3.30
2018-12-29T20:14:28.319Z,3.30
2018-12-29T20:16:56.783Z,3.30
2018-12-29T20:19:25.259Z,3.30
2018-12-29T20:21:53.824Z,3.30
2018-12-29T20:24:22.563Z,3.20
2018-12-29T20:26:51.135Z,3.30
2018-12-29T20:29:19.659Z,3.20
2018-12-29T20:31:48.147Z,3.20
2018-12-29T20:34:16.670Z,3.20
2018-12-29T20:36:45.505Z,3.20
2018-12-29T20:39:13.993Z,3.10
2018-12-29T20:41:42.593Z,3.20
2018-12-29T20:44:11.130Z,3.20
2018-12-29T20:46:39.670Z,3.20
2018-12-29T20:49:08.230Z,3.30
2018-12-29T20:51:36.773Z,3.30
2018-12-29T20:54:05.333Z,3.30
2018-12-29T20:56:33.870Z,3.30
2018-12-29T20:59:02.424Z,3.40
2018-12-29T21:01:30.958Z,3.40
2018-12-29T21:03:59.704Z,3.40
2018-12-29T21:06:28.225Z,3.40
2018-12-29T21:08:56.760Z,3.50
2018-12-29T21:11:25.295Z,3.50
2018-12-29T21:13:53.870Z,3.50
2018-12-29T21:16:22.410Z,3.60
2018-12-29T21:18:51.059Z,3.60
2018-12-29T21:21:19.567Z,3.60
2018-12-29T21:23:48.059Z,3.60
2018-12-29T21:26:16.602Z,3.70
2018-12-29T21:28:45.153Z,3.70
2018-12-29T21:31:13.707Z,3.70
2018-12-29T21:33:42.261Z,3.80
2018-12-29T21:36:10.800Z,3.80
2018-12-29T21:38:39.370Z,3.70
2018-12-29T21:41:07.883Z,3.80
2018-12-29T21:43:36.452Z,3.80
2018-12-29T21:46:05.363Z,3.80
2018-12-29T21:48:33.902Z,3.90
2018-12-29T21:51:02.433Z,3.90
2018-12-29T21:53:30.975Z,3.90
2018-12-29T21:55:59.530Z,3.90
2018-12-29T21:58:27.991Z,3.90
2018-12-29T22:00:56.597Z,3.90
2018-12-29T22:03:25.172Z,3.90
2018-12-29T22:05:53.791Z,3.90
2018-12-29T22:08:22.322Z,3.90
2018-12-29T22:10:50.888Z,3.90
2018-12-29T22:13:19.628Z,3.90
2018-12-29T22:15:49.130Z,3.90
2018-12-29T22:18:17.728Z,3.90
2018-12-29T22:20:46.272Z,3.90
2018-12-29T22:23:14.830Z,4.00
2018-12-29T22:25:48.242Z,4.00
2018-12-29T22:28:13.542Z,4.00
2018-12-29T22:30:42.101Z,4.00
2018-12-29T22:33:10.636Z,4.00
2018-12-29T22:35:39.202Z,4.10
2018-12-29T22:38:07.702Z,4.10
2018-12-29T22:40:36.524Z,4.10
2018-12-29T22:43:05.077Z,4.20
2018-12-29T22:45:33.633Z,4.20
2018-12-29T22:48:02.171Z,4.20
2018-12-29T22:50:30.706Z,4.20
2018-12-29T22:52:59.255Z,4.20
2018-12-29T22:55:27.785Z,4.20
2018-12-29T22:57:56.336Z,4.20
2018-12-29T23:00:26.583Z,4.30
2018-12-29T23:02:55.159Z,4.30
2018-12-29T23:05:23.970Z,4.30
2018-12-29T23:07:52.520Z,4.30
2018-12-29T23:10:21.124Z,4.30
2018-12-29T23:12:49.983Z,4.30
2018-12-29T23:15:18.524Z,4.40
2018-12-29T23:17:47.092Z,4.40
2018-12-29T23:20:15.641Z,4.50
2018-12-29T23:22:44.209Z,4.50
2018-12-29T23:25:12.777Z,4.50
2018-12-29T23:27:41.634Z,4.40
2018-12-29T23:30:10.190Z,4.50
2018-12-29T23:32:39.013Z,4.40
2018-12-29T23:35:07.626Z,4.50
2018-12-29T23:37:36.157Z,4.50
2018-12-29T23:40:05.955Z,4.50
2018-12-29T23:42:34.473Z,4.60
2018-12-29T23:45:03.047Z,4.60
2018-12-29T23:47:31.941Z,4.60
2018-12-29T23:50:00.506Z,4.60
2018-12-29T23:52:29.074Z,4.60
2018-12-29T23:54:57.608Z,4.60
2018-12-29T23:57:26.065Z,4.70
2018-12-29T23:59:54.919Z,4.70
